createdAt,value
2018-07-20T00:01:40.832Z,2.43
2018-07-20T00:04:13.872Z,1.50
2018-07-20T00:06:46.815Z,1.70
2018-07-20T00:09:19.908Z,1.70
2018-07-20T00:11:52.977Z,1.83
2018-07-20T00:14:25.911Z,1.80
2018-07-20T00:16:59.104Z,2.10
2018-07-20T00:19:32.145Z,1.50
2018-07-20T00:22:05.193Z,1.87
2018-07-20T00:24:38.259Z,1.50
2018-07-20T00:27:11.209Z,1.30
2018-07-20T00:29:44.477Z,1.50
2018-07-20T00:32:17.568Z,1.50
2018-07-20T00:34:50.810Z,1.30
2018-07-20T00:44:11.454Z,1.77
2018-07-20T00:46:44.651Z,1.50
2018-07-20T00:49:17.943Z,1.47
2018-07-20T00:51:51.201Z,1.97
2018-07-20T00:54:24.398Z,1.50
2018-07-20T00:56:58.036Z,1.60
2018-07-20T00:59:31.219Z,1.50
2018-07-20T01:02:04.301Z,1.80
2018-07-20T01:04:37.448Z,1.70
2018-07-20T01:07:10.671Z,1.53
2018-07-20T01:09:43.723Z,1.50
2018-07-20T01:12:16.717Z,1.50
2018-07-20T01:14:49.838Z,1.50
2018-07-20T01:17:22.952Z,1.47
2018-07-20T01:19:56.154Z,1.60
2018-07-20T01:22:29.210Z,2.07
2018-07-20T01:25:02.257Z,1.97
2018-07-20T01:27:35.452Z,1.97
2018-07-20T01:30:08.509Z,1.90
2018-07-20T01:32:41.461Z,1.93
2018-07-20T01:35:14.673Z,1.67
2018-07-20T01:37:47.738Z,1.70
2018-07-20T01:40:20.864Z,1.77
2018-07-20T01:42:54.157Z,1.83
2018-07-20T01:45:27.162Z,1.83
2018-07-20T01:48:00.317Z,1.90
2018-07-20T01:50:33.491Z,1.70
2018-07-20T01:53:06.443Z,1.60
2018-07-20T01:55:39.525Z,1.50
2018-07-20T01:58:12.558Z,1.70
2018-07-20T02:00:45.746Z,1.57
2018-07-20T02:03:18.825Z,1.60
2018-07-20T02:05:51.852Z,1.63
2018-07-20T02:08:25.208Z,1.60
2018-07-20T02:11:02.973Z,1.60
2018-07-20T02:13:36.093Z,1.70
2018-07-20T02:16:09.151Z,1.60
2018-07-20T02:18:42.260Z,1.50
2018-07-20T02:21:15.258Z,1.80
2018-07-20T02:23:48.273Z,1.10
2018-07-20T02:26:21.338Z,1.50
2018-07-20T02:28:54.397Z,1.60
2018-07-20T02:31:27.613Z,1.20
2018-07-20T02:34:00.760Z,1.23
2018-07-20T02:36:33.874Z,1.33
2018-07-20T02:39:08.985Z,1.50
2018-07-20T02:41:42.402Z,1.50
2018-07-20T02:44:15.381Z,1.40
2018-07-20T02:46:48.344Z,1.40
2018-07-20T02:49:21.442Z,1.30
2018-07-20T02:51:54.544Z,1.57
2018-07-20T02:54:27.719Z,1.50
2018-07-20T02:57:00.904Z,1.90
2018-07-20T02:59:34.061Z,1.60
2018-07-20T03:02:07.064Z,1.50
2018-07-20T03:04:40.054Z,1.60
2018-07-20T03:07:12.963Z,1.33
2018-07-20T03:09:45.961Z,1.67
2018-07-20T03:12:18.984Z,1.70
2018-07-20T03:14:52.125Z,1.73
2018-07-20T03:17:25.185Z,1.60
2018-07-20T03:19:58.256Z,2.43
2018-07-20T03:22:31.205Z,1.80
2018-07-20T03:25:04.417Z,1.70
2018-07-20T03:27:37.557Z,1.40
2018-07-20T03:30:10.824Z,1.87
2018-07-20T03:32:43.953Z,1.40
2018-07-20T03:35:17.193Z,1.70
2018-07-20T03:37:50.370Z,1.53
2018-07-20T03:40:23.499Z,1.60
2018-07-20T03:42:56.514Z,1.50
2018-07-20T03:45:29.494Z,1.40
2018-07-20T03:48:02.656Z,1.90
2018-07-20T03:50:35.827Z,1.60
2018-07-20T03:53:08.964Z,1.70
2018-07-20T03:55:42.047Z,1.73
2018-07-20T03:58:15.280Z,1.80
2018-07-20T04:00:48.412Z,1.53
2018-07-20T04:03:21.757Z,1.70
2018-07-20T04:05:54.892Z,2.00
2018-07-20T04:08:28.011Z,1.50
2018-07-20T04:11:01.043Z,1.60
2018-07-20T04:13:34.185Z,1.57
2018-07-20T04:16:07.352Z,1.93
2018-07-20T04:18:40.546Z,1.60
2018-07-20T04:21:13.675Z,1.90
2018-07-20T04:23:46.776Z,1.70
2018-07-20T04:26:20.830Z,1.83
2018-07-20T04:28:55.740Z,1.70
2018-07-20T04:31:28.863Z,1.90
2018-07-20T04:34:01.936Z,1.70
2018-07-20T04:36:35.183Z,1.60
2018-07-20T04:39:10.897Z,1.57
2018-07-20T04:41:44.455Z,1.83
2018-07-20T04:44:17.743Z,1.90
2018-07-20T04:46:50.849Z,2.00
2018-07-20T04:49:23.909Z,1.73
2018-07-20T04:51:57.207Z,1.40
2018-07-20T04:54:30.254Z,1.70
2018-07-20T04:57:03.372Z,1.90
2018-07-20T04:59:36.489Z,1.97
2018-07-20T05:02:10.047Z,2.10
2018-07-20T05:04:43.117Z,1.70
2018-07-20T05:07:16.147Z,1.70
2018-07-20T05:09:49.339Z,2.37
2018-07-20T05:12:22.686Z,1.90
2018-07-20T05:14:55.839Z,1.73
2018-07-20T05:17:29.106Z,2.00
2018-07-20T05:20:02.221Z,2.00
2018-07-20T05:22:35.178Z,1.80
2018-07-20T05:25:08.415Z,2.47
2018-07-20T05:27:41.390Z,1.77
2018-07-20T05:30:14.771Z,2.10
2018-07-20T05:32:48.002Z,2.00
2018-07-20T05:35:21.336Z,2.00
2018-07-20T05:37:54.657Z,2.40
2018-07-20T05:40:27.621Z,1.70
2018-07-20T05:43:00.621Z,2.10
2018-07-20T05:45:33.586Z,1.97
2018-07-20T05:48:06.612Z,2.30
2018-07-20T05:50:39.758Z,2.30
2018-07-20T05:53:12.721Z,2.17
2018-07-20T05:55:45.892Z,2.07
2018-07-20T05:58:19.010Z,2.20
2018-07-20T06:00:52.340Z,2.27
2018-07-20T06:03:26.058Z,2.30
2018-07-20T06:05:59.353Z,2.20
2018-07-20T06:08:32.935Z,2.60
2018-07-20T06:11:05.943Z,2.43
2018-07-20T06:13:38.860Z,2.70
2018-07-20T06:16:12.159Z,2.60
2018-07-20T06:18:45.448Z,2.53
2018-07-20T06:21:18.581Z,2.57
2018-07-20T06:23:51.814Z,2.40
2018-07-20T06:26:25.241Z,2.60
2018-07-20T06:28:58.692Z,2.60
2018-07-20T06:31:32.053Z,2.43
2018-07-20T06:34:05.313Z,2.60
2018-07-20T06:36:38.483Z,2.73
2018-07-20T06:39:14.252Z,2.70
2018-07-20T06:41:47.483Z,2.90
2018-07-20T06:44:20.582Z,2.40
2018-07-20T06:46:53.720Z,2.50
2018-07-20T06:49:26.835Z,2.90
2018-07-20T06:51:59.979Z,2.70
2018-07-20T06:54:33.204Z,3.00
2018-07-20T06:57:06.290Z,2.83
2018-07-20T06:59:39.292Z,3.60
2018-07-20T07:02:12.371Z,3.30
2018-07-20T07:04:45.607Z,3.00
2018-07-20T07:07:18.905Z,3.33
2018-07-20T07:09:51.956Z,3.30
2018-07-20T07:12:25.042Z,2.70
2018-07-20T07:14:58.751Z,3.60
2018-07-20T07:17:31.758Z,3.70
2018-07-20T07:20:04.922Z,3.57
2018-07-20T07:22:38.588Z,3.50
2018-07-20T07:25:11.680Z,3.73
2018-07-20T07:27:44.803Z,3.53
2018-07-20T07:30:18.157Z,3.80
2018-07-20T07:32:51.282Z,4.23
2018-07-20T07:35:24.425Z,3.37
2018-07-20T07:37:57.416Z,3.70
2018-07-20T07:40:30.656Z,3.77
2018-07-20T07:43:03.554Z,3.80
2018-07-20T14:39:04.991Z,2.07
2018-07-20T14:41:38.993Z,2.30
2018-07-20T14:44:15.505Z,2.23
2018-07-20T14:46:49.939Z,2.47
2018-07-20T14:49:23.028Z,2.70
2018-07-20T14:51:56.953Z,2.83
2018-07-20T14:54:30.163Z,2.70
2018-07-20T14:57:04.339Z,2.70
2018-07-20T14:59:37.437Z,2.97
2018-07-20T15:02:10.675Z,3.07
2018-07-20T15:04:43.902Z,2.90
2018-07-20T15:07:17.154Z,3.60
2018-07-20T15:09:50.137Z,3.27
2018-07-20T15:12:23.143Z,3.37
2018-07-20T15:14:56.057Z,2.83
2018-07-20T15:17:28.887Z,3.43
2018-07-20T15:20:01.823Z,2.90
2018-07-20T15:22:34.623Z,3.57
2018-07-20T15:25:07.717Z,3.10
2018-07-20T15:27:40.569Z,3.20
2018-07-20T15:30:13.438Z,3.57
2018-07-20T15:32:46.342Z,3.30
2018-07-20T15:35:19.088Z,4.23
2018-07-20T15:37:52.317Z,3.47
2018-07-20T15:40:25.156Z,4.30
2018-07-20T15:42:58.150Z,3.80
2018-07-20T15:45:30.957Z,4.00
2018-07-20T15:48:03.886Z,3.90
2018-07-20T15:50:36.887Z,3.87
2018-07-20T15:53:37.678Z,3.97
2018-07-20T15:55:42.836Z,3.50
2018-07-20T15:58:15.735Z,3.60
2018-07-20T16:00:48.578Z,3.30
2018-07-20T16:03:21.349Z,3.97
2018-07-20T16:05:54.245Z,3.83
2018-07-20T16:08:27.031Z,3.60
2018-07-20T16:10:59.837Z,4.07
2018-07-20T16:20:19.468Z,4.50
2018-07-20T16:22:52.287Z,3.83
2018-07-20T16:25:25.220Z,3.87
2018-07-20T16:27:58.013Z,3.97
2018-07-20T16:30:30.881Z,3.30
2018-07-20T16:33:03.700Z,3.30
2018-07-20T16:35:36.498Z,3.10
2018-07-20T16:38:09.390Z,3.50
2018-07-20T16:40:42.216Z,3.30
2018-07-20T16:43:14.995Z,3.63
2018-07-20T16:45:47.805Z,3.93
2018-07-20T16:48:20.639Z,3.43
2018-07-20T16:50:53.506Z,2.93
2018-07-20T16:53:26.321Z,2.60
2018-07-20T16:55:59.243Z,2.57
2018-07-20T16:58:32.060Z,2.63
2018-07-20T17:01:04.928Z,2.70
2018-07-20T17:03:37.733Z,3.27
2018-07-20T17:06:10.654Z,2.53
2018-07-20T17:08:43.460Z,3.43
2018-07-20T17:11:16.343Z,2.30
2018-07-20T17:13:49.416Z,3.27
2018-07-20T17:16:22.236Z,3.00
2018-07-20T17:18:55.293Z,2.87
2018-07-20T17:21:28.125Z,2.50
2018-07-20T17:24:01.419Z,2.90
2018-07-20T17:26:34.307Z,3.63
2018-07-20T17:29:07.102Z,2.70
2018-07-20T17:31:39.918Z,2.77
2018-07-20T17:34:12.692Z,2.80
2018-07-20T17:36:45.469Z,2.53
2018-07-20T17:39:18.453Z,2.77
2018-07-20T17:41:51.418Z,2.43
2018-07-20T17:44:24.346Z,3.00
2018-07-20T17:46:57.191Z,3.37
2018-07-20T17:49:30.141Z,2.23
2018-07-20T17:52:03.040Z,2.80
2018-07-20T17:54:35.799Z,3.10
2018-07-20T17:57:09.289Z,2.63
2018-07-20T17:59:42.172Z,3.20
2018-07-20T18:02:15.167Z,2.83
2018-07-20T18:04:47.991Z,3.27
2018-07-20T18:07:20.842Z,2.77
2018-07-20T18:09:53.799Z,3.00
2018-07-20T18:12:26.764Z,3.10
2018-07-20T18:14:59.636Z,2.90
2018-07-20T18:17:32.418Z,2.83
2018-07-20T18:20:05.334Z,3.50
2018-07-20T18:22:38.169Z,4.10
2018-07-20T18:25:11.045Z,3.20
2018-07-20T18:27:43.841Z,3.20
2018-07-20T18:30:16.821Z,3.50
2018-07-20T18:32:49.632Z,3.10
2018-07-20T18:35:22.427Z,3.40
2018-07-20T18:37:55.183Z,3.30
2018-07-20T18:40:27.999Z,3.27
2018-07-20T18:43:00.823Z,3.57
2018-07-20T18:45:33.661Z,3.63
2018-07-20T18:48:06.541Z,3.10
2018-07-20T18:50:39.391Z,3.63
2018-07-20T18:53:12.324Z,3.40
2018-07-20T18:55:45.145Z,3.20
2018-07-20T18:58:18.247Z,3.17
2018-07-20T19:00:51.248Z,2.83
2018-07-20T19:03:24.075Z,3.50
2018-07-20T19:05:56.908Z,3.10
2018-07-20T19:08:29.769Z,2.93
2018-07-20T19:11:02.840Z,2.90
2018-07-20T19:13:35.686Z,2.93
2018-07-20T19:16:08.587Z,3.30
2018-07-20T19:18:41.427Z,3.20
2018-07-20T19:21:14.287Z,3.50
2018-07-20T19:23:47.214Z,3.40
2018-07-20T19:26:20.057Z,3.00
2018-07-20T19:28:52.872Z,2.53
2018-07-20T19:31:25.678Z,3.10
2018-07-20T19:33:58.427Z,3.17
2018-07-20T19:36:31.247Z,3.20
2018-07-20T19:39:04.062Z,2.80
2018-07-20T19:41:36.974Z,3.20
2018-07-20T19:44:09.801Z,3.10
2018-07-20T19:46:42.623Z,2.77
2018-07-20T19:49:15.455Z,3.03
2018-07-20T19:51:48.283Z,3.10
2018-07-20T19:54:21.124Z,3.00
2018-07-20T19:56:53.915Z,3.00
2018-07-20T19:59:26.811Z,3.17
2018-07-20T20:02:00.403Z,2.63
2018-07-20T20:04:33.213Z,2.87
2018-07-20T20:07:06.044Z,2.50
2018-07-20T20:09:38.855Z,3.00
2018-07-20T20:12:11.737Z,2.80
2018-07-20T20:14:44.532Z,2.50
2018-07-20T20:17:17.372Z,2.73
2018-07-20T20:19:50.195Z,2.60
2018-07-20T20:22:23.097Z,2.90
2018-07-20T20:24:55.861Z,2.57
2018-07-20T20:27:28.639Z,2.73
2018-07-20T20:30:01.461Z,2.77
2018-07-20T20:32:34.344Z,2.50
2018-07-20T20:35:07.107Z,2.60
2018-07-20T20:37:39.884Z,2.23
2018-07-20T20:40:12.688Z,2.37
2018-07-20T20:42:45.457Z,2.30
2018-07-20T20:45:18.400Z,2.30
2018-07-20T20:47:51.228Z,1.97
2018-07-20T20:50:24.125Z,2.10
2018-07-20T20:52:56.964Z,1.90
2018-07-20T20:55:29.849Z,2.03
2018-07-20T20:58:02.623Z,2.00
2018-07-20T21:00:35.385Z,1.60
2018-07-20T21:03:08.239Z,2.13
2018-07-20T21:05:41.024Z,1.70
2018-07-20T21:08:13.800Z,1.63
2018-07-20T21:10:46.740Z,1.93
2018-07-20T21:13:19.728Z,2.10
2018-07-20T21:15:52.634Z,1.80
2018-07-20T21:18:25.570Z,1.57
2018-07-20T21:20:58.376Z,2.03
2018-07-20T21:23:32.383Z,2.10
2018-07-20T21:26:06.376Z,2.43
2018-07-20T21:28:40.242Z,1.93
2018-07-20T21:31:13.501Z,2.20
2018-07-20T21:33:47.181Z,1.73
2018-07-20T21:36:20.363Z,2.30
2018-07-20T21:38:53.589Z,2.40
2018-07-20T21:41:26.435Z,2.33
2018-07-20T21:43:59.224Z,2.77
2018-07-20T21:46:33.028Z,2.63
2018-07-20T21:49:06.298Z,2.20
2018-07-20T21:51:39.294Z,2.37
2018-07-20T21:54:12.214Z,1.83
2018-07-20T21:56:45.113Z,2.43
2018-07-20T21:59:18.183Z,1.97
2018-07-20T22:01:51.116Z,2.17
2018-07-20T22:04:24.923Z,2.13
2018-07-20T22:06:57.946Z,2.23
2018-07-20T22:09:30.864Z,2.10
2018-07-20T22:12:03.837Z,2.00
2018-07-20T22:14:36.708Z,1.73
2018-07-20T22:17:09.770Z,1.90
2018-07-20T22:19:42.582Z,2.27
2018-07-20T22:22:15.379Z,2.20
2018-07-20T22:24:48.247Z,2.10
2018-07-20T22:27:21.094Z,2.27
2018-07-20T22:29:53.939Z,2.33
2018-07-20T22:32:26.779Z,2.00
2018-07-20T22:34:59.636Z,1.93
2018-07-20T22:37:32.525Z,2.20
2018-07-20T22:40:05.331Z,2.03
2018-07-20T22:42:38.501Z,1.80
2018-07-20T22:45:11.357Z,2.03
2018-07-20T22:47:44.475Z,2.13
2018-07-20T22:50:17.389Z,1.80
2018-07-20T22:52:50.387Z,2.43
2018-07-20T22:55:23.263Z,2.30
2018-07-20T22:57:56.147Z,2.10
2018-07-20T23:00:28.931Z,2.10
2018-07-20T23:03:01.916Z,2.23
2018-07-20T23:05:34.829Z,2.40
2018-07-20T23:08:07.647Z,2.33
2018-07-20T23:10:40.500Z,2.40
2018-07-20T23:13:13.407Z,2.30
2018-07-20T23:15:46.375Z,2.17
2018-07-20T23:18:19.947Z,1.73
2018-07-20T23:20:52.922Z,1.97
2018-07-20T23:23:25.891Z,2.00
2018-07-20T23:25:58.736Z,1.67
2018-07-20T23:28:31.648Z,1.73
2018-07-20T23:31:04.626Z,1.90
2018-07-20T23:33:37.472Z,1.57
2018-07-20T23:36:10.386Z,1.80
2018-07-20T23:38:43.297Z,1.87
2018-07-20T23:41:16.139Z,1.80
2018-07-20T23:43:49.033Z,1.83
2018-07-20T23:46:21.982Z,1.70
2018-07-20T23:48:54.883Z,1.97
2018-07-20T23:51:27.777Z,2.00
2018-07-20T23:54:00.667Z,2.10
2018-07-20T23:56:33.466Z,2.27
2018-07-20T23:59:06.278Z,1.80
